Time;durP1;ratioP1;P1;durP2;ratioP2;P2;SDS_P1;SDS_P2;PMS_P1;PMS_P2;Temp;Humidity;BMP_temperature;BMP_pressure;BME280_temperature;BME280_humidity;BME280_pressure;Samples;Min_cycle;Max_cycle;Signal;HPM_P1;HPM_P2
2023/06/14 00:00:09;;;;;;;4.47;4.10;;;19.50;30.20;;;;;;20560;6827;277921;-76
2023/06/14 00:02:35;;;;;;;4.77;4.00;;;19.90;30.00;;;;;;20750;6827;117621;-76
2023/06/14 00:05:00;;;;;;;4.03;3.60;;;19.80;29.70;;;;;;20773;6827;117222;-76
2023/06/14 00:07:43;;;;;;;4.20;3.90;;;19.40;29.60;;;;;;20766;6827;117448;-76
2023/06/14 00:10:09;;;;;;;4.30;4.00;;;19.30;29.60;;;;;;20309;6827;306730;-76
2023/06/14 00:12:35;;;;;;;5.10;3.97;;;19.60;29.40;;;;;;20737;6827;117235;-76
2023/06/14 00:15:01;;;;;;;4.15;3.85;;;19.60;29.40;;;;;;20742;6827;117237;-76
2023/06/14 00:17:30;;;;;;;4.43;4.13;;;19.40;29.60;;;;;;20519;6827;281520;-76
2023/06/14 00:19:51;;;;;;;4.32;3.92;;;19.60;30.00;;;;;;20496;6827;315574;-76
2023/06/14 00:22:16;;;;;;;4.33;4.03;;;20.00;29.30;;;;;;20533;6827;278936;-76
2023/06/14 00:24:42;;;;;;;4.77;4.37;;;20.20;29.20;;;;;;20511;6827;337939;-76
2023/06/14 00:27:08;;;;;;;6.10;4.07;;;20.30;29.20;;;;;;20734;6827;117512;-75
2023/06/14 00:29:34;;;;;;;4.23;3.93;;;19.60;29.10;;;;;;20756;6827;117155;-75
2023/06/14 00:32:00;;;;;;;4.07;3.73;;;19.60;29.10;;;;;;20769;6827;117373;-76
2023/06/14 00:34:26;;;;;;;4.22;3.92;;;19.30;29.40;;;;;;20753;6827;117746;-76
2023/06/14 00:36:51;;;;;;;4.77;4.37;;;19.10;29.70;;;;;;20556;6827;306586;-75
2023/06/14 00:39:17;;;;;;;5.07;4.47;;;19.30;29.90;;;;;;20549;6827;306533;-76
2023/06/14 00:41:42;;;;;;;4.20;3.90;;;19.60;29.50;;;;;;20783;6827;117448;-76
2023/06/14 00:44:08;;;;;;;4.53;4.20;;;19.50;29.60;;;;;;20779;6827;120957;-76
2023/06/14 00:46:33;;;;;;;4.40;4.00;;;19.20;29.90;;;;;;20754;6827;117186;-76
2023/06/14 00:48:59;;;;;;;4.13;3.83;;;19.00;30.30;;;;;;20780;6827;117222;-76
2023/06/14 00:51:24;;;;;;;4.77;4.37;;;18.80;30.70;;;;;;20553;6827;312361;-76
2023/06/14 00:53:50;;;;;;;4.40;4.10;;;19.00;31.70;;;;;;20773;6827;116991;-76
2023/06/14 00:56:15;;;;;;;4.37;4.03;;;19.00;31.40;;;;;;20763;6827;117595;-77
2023/06/14 00:58:41;;;;;;;4.47;4.20;;;18.80;31.60;;;;;;20743;6827;117741;-77
2023/06/14 01:01:07;;;;;;;4.65;4.25;;;18.60;31.80;;;;;;20774;6827;117123;-76
2023/06/14 01:03:33;;;;;;;4.60;4.28;;;18.40;32.30;;;;;;20794;6827;117806;-76
2023/06/14 01:06:11;;;;;;;5.18;4.70;;;18.30;32.70;;;;;;20553;6825;310756;-76
2023/06/14 01:08:40;;;;;;;5.32;4.82;;;18.50;34.10;;;;;;20532;6826;336081;-76
2023/06/14 01:11:06;;;;;;;5.10;4.80;;;18.90;33.60;;;;;;20406;6827;311515;-76
2023/06/14 01:13:35;;;;;;;5.25;4.60;;;19.20;33.00;;;;;;20536;6827;308812;-75
2023/06/14 01:16:01;;;;;;;4.77;4.40;;;19.50;32.40;;;;;;20527;6827;281093;-76
2023/06/14 01:18:29;;;;;;;4.50;4.10;;;19.50;32.40;;;;;;20744;6827;118445;-76
2023/06/14 01:20:55;;;;;;;5.03;4.50;;;19.30;32.50;;;;;;20766;6827;117530;-75
2023/06/14 01:23:19;;;;;;;5.05;4.65;;;18.80;32.60;;;;;;20545;6827;312677;-76
2023/06/14 01:25:46;;;;;;;4.73;4.43;;;18.80;32.90;;;;;;20763;6827;117053;-76
2023/06/14 01:28:11;;;;;;;4.70;4.40;;;18.70;32.80;;;;;;20754;6827;117990;-76
2023/06/14 01:30:37;;;;;;;5.12;4.82;;;18.60;33.50;;;;;;20551;6827;306339;-75
2023/06/14 01:33:02;;;;;;;4.80;4.50;;;18.60;33.50;;;;;;20784;6827;116293;-75
2023/06/14 01:35:29;;;;;;;5.40;4.83;;;18.40;33.20;;;;;;20779;6827;122831;-75
2023/06/14 01:37:55;;;;;;;5.37;4.87;;;18.20;33.40;;;;;;20579;6827;308257;-74
2023/06/14 01:40:23;;;;;;;4.13;3.77;;;18.30;33.80;;;;;;20769;6827;126794;-75
2023/06/14 01:42:49;;;;;;;4.82;4.50;;;18.20;33.60;;;;;;20592;6827;281708;-75
2023/06/14 01:45:15;;;;;;;4.40;4.00;;;18.30;33.50;;;;;;20771;6827;117097;-75
2023/06/14 01:47:40;;;;;;;4.27;4.00;;;18.20;33.40;;;;;;20757;6827;117518;-75
2023/06/14 01:50:07;;;;;;;5.13;4.80;;;18.10;33.90;;;;;;20551;6827;335987;-75
2023/06/14 01:52:32;;;;;;;4.03;3.73;;;18.10;33.90;;;;;;20728;6827;117920;-75
2023/06/14 01:54:58;;;;;;;4.72;4.40;;;18.00;33.60;;;;;;20562;6827;282482;-76
2023/06/14 01:57:25;;;;;;;4.10;3.90;;;18.10;33.70;;;;;;20784;6827;119779;-75
2023/06/14 01:59:50;;;;;;;4.57;4.17;;;18.00;33.60;;;;;;20753;6827;121310;-75
2023/06/14 02:02:16;;;;;;;3.97;3.77;;;17.60;34.10;;;;;;20763;6827;117537;-75
2023/06/14 02:04:42;;;;;;;4.10;3.70;;;17.50;34.00;;;;;;20745;6827;117557;-75
2023/06/14 02:07:10;;;;;;;4.78;4.45;;;17.40;34.40;;;;;;20552;6827;336643;-75
2023/06/14 02:09:36;;;;;;;4.67;4.27;;;17.70;34.50;;;;;;20772;6827;117847;-74
2023/06/14 02:12:01;;;;;;;4.33;4.03;;;17.70;34.20;;;;;;20768;6827;117818;-75
2023/06/14 02:14:27;;;;;;;4.17;3.83;;;17.50;34.20;;;;;;20747;6827;117218;-75
2023/06/14 02:16:53;;;;;;;5.57;4.60;;;17.30;34.20;;;;;;20760;6827;117761;-75
2023/06/14 02:19:18;;;;;;;4.82;4.35;;;17.10;34.30;;;;;;20559;6825;277872;-76
2023/06/14 02:21:44;;;;;;;4.10;3.90;;;17.40;34.30;;;;;;20761;6826;117531;-75
2023/06/14 02:24:10;;;;;;;4.93;4.30;;;17.40;34.30;;;;;;20767;6827;117980;-76
2023/06/14 02:26:37;;;;;;;5.07;4.65;;;17.50;35.00;;;;;;20537;6827;311513;-75
2023/06/14 02:29:01;;;;;;;4.82;4.53;;;17.50;35.00;;;;;;20534;6827;307024;-75
2023/06/14 02:31:29;;;;;;;4.80;4.50;;;18.20;33.90;;;;;;20553;6827;280247;-72
2023/06/14 02:33:53;;;;;;;4.10;3.73;;;18.10;33.80;;;;;;20731;6827;117695;-76
2023/06/14 02:36:20;;;;;;;4.13;3.83;;;18.00;33.80;;;;;;20729;6827;123364;-75
2023/06/14 02:38:45;;;;;;;4.83;4.53;;;17.60;34.10;;;;;;20550;6827;277199;-76
2023/06/14 02:41:11;;;;;;;5.32;4.93;;;18.00;34.10;;;;;;20545;6827;336893;-76
2023/06/14 02:43:37;;;;;;;4.70;4.40;;;18.00;34.10;;;;;;20542;6827;336894;-76
2023/06/14 02:46:02;;;;;;;5.03;4.67;;;18.30;33.80;;;;;;20546;6827;342982;-76
2023/06/14 02:48:28;;;;;;;4.87;4.50;;;18.40;33.50;;;;;;20742;6827;117658;-75
2023/06/14 02:50:54;;;;;;;4.70;4.40;;;17.70;34.60;;;;;;20761;6827;117528;-75
2023/06/14 02:53:20;;;;;;;5.05;4.65;;;17.70;34.00;;;;;;20543;6827;307036;-75
2023/06/14 02:55:46;;;;;;;5.20;4.80;;;17.80;34.40;;;;;;20512;6827;341314;-76
2023/06/14 02:58:11;;;;;;;4.80;4.50;;;18.00;34.20;;;;;;20505;6827;291505;-75
2023/06/14 03:00:38;;;;;;;5.00;4.60;;;18.20;34.30;;;;;;20708;6827;120744;-75
2023/06/14 03:03:04;;;;;;;4.57;4.37;;;18.00;34.30;;;;;;20513;6827;280022;-76
2023/06/14 03:05:29;;;;;;;4.70;4.40;;;18.00;34.70;;;;;;20504;6827;283506;-75
2023/06/14 03:07:54;;;;;;;4.80;4.50;;;18.30;34.50;;;;;;20723;6827;116899;-75
2023/06/14 03:10:21;;;;;;;4.95;4.65;;;18.10;34.20;;;;;;20512;6827;277565;-76
2023/06/14 03:12:45;;;;;;;4.43;4.23;;;18.10;34.20;;;;;;20766;6827;117701;-76
2023/06/14 03:15:13;;;;;;;5.40;4.90;;;17.50;34.90;;;;;;20769;6827;117158;-77
2023/06/14 03:17:38;;;;;;;5.20;4.90;;;17.50;34.50;;;;;;20546;6827;324957;-78
2023/06/14 03:20:03;;;;;;;4.83;4.50;;;17.60;34.90;;;;;;20554;6827;309659;-77
2023/06/14 03:22:29;;;;;;;4.97;4.57;;;17.90;34.40;;;;;;20540;6827;278975;-75
2023/06/14 03:24:54;;;;;;;5.00;4.70;;;18.10;34.20;;;;;;20567;6827;279718;-75
2023/06/14 03:27:20;;;;;;;4.90;4.60;;;18.20;34.00;;;;;;20562;6827;293446;-74
2023/06/14 03:29:45;;;;;;;4.87;4.57;;;18.30;34.30;;;;;;20564;6825;277576;-75
2023/06/14 03:32:11;;;;;;;4.70;4.33;;;18.40;34.30;;;;;;20782;6826;117567;-75
2023/06/14 03:34:38;;;;;;;4.27;4.07;;;18.10;34.60;;;;;;20778;6827;117626;-75
2023/06/14 03:37:02;;;;;;;5.40;4.57;;;17.70;35.00;;;;;;20554;6827;306058;-75
2023/06/14 03:39:29;;;;;;;4.93;4.60;;;17.70;35.40;;;;;;20558;6827;339888;-76
2023/06/14 03:41:54;;;;;;;4.50;4.20;;;18.00;35.10;;;;;;20758;6827;121368;-75
2023/06/14 03:44:20;;;;;;;4.85;4.45;;;17.70;34.90;;;;;;20748;6827;117292;-76
2023/06/14 03:46:46;;;;;;;4.97;4.67;;;17.40;35.30;;;;;;20554;6827;277378;-78
2023/06/14 03:49:12;;;;;;;4.53;4.23;;;17.40;35.30;;;;;;20778;6827;117348;-77
2023/06/14 03:51:39;;;;;;;4.37;4.00;;;17.30;35.30;;;;;;20763;6827;117043;-77
2023/06/14 03:54:04;;;;;;;4.90;4.50;;;17.00;35.60;;;;;;20772;6827;117353;-77
2023/06/14 03:56:30;;;;;;;4.83;4.40;;;16.80;35.90;;;;;;20542;6827;307282;-77
2023/06/14 03:58:55;;;;;;;4.80;4.50;;;17.00;36.50;;;;;;20769;6827;117224;-78
2023/06/14 04:01:25;;;;;;;4.90;4.57;;;17.10;36.30;;;;;;20554;6827;308023;-78
2023/06/14 04:03:46;;;;;;;5.03;4.55;;;17.30;36.40;;;;;;20747;6827;119594;-76
2023/06/14 04:06:19;;;;;;;4.63;4.30;;;17.30;36.30;;;;;;20778;6827;123274;-77
2023/06/14 04:08:41;;;;;;;4.70;4.43;;;17.20;36.60;;;;;;20742;6827;117473;-78
2023/06/14 04:11:06;;;;;;;4.80;4.17;;;16.90;36.60;;;;;;20768;6827;119916;-76
2023/06/14 04:13:34;;;;;;;5.03;4.68;;;17.10;37.30;;;;;;20558;6827;341115;-78
2023/06/14 04:15:58;;;;;;;4.90;4.53;;;17.10;37.30;;;;;;20778;6827;120113;-77
2023/06/14 04:18:25;;;;;;;5.15;4.85;;;17.10;37.00;;;;;;20479;6827;340394;-78
2023/06/14 04:20:50;;;;;;;4.77;4.37;;;17.30;37.50;;;;;;20775;6827;117596;-75
2023/06/14 04:23:17;;;;;;;5.07;4.80;;;17.20;37.20;;;;;;20561;6827;306658;-75
2023/06/14 04:25:44;;;;;;;5.43;5.03;;;17.30;37.50;;;;;;20535;6827;307547;-76
2023/06/14 04:28:08;;;;;;;4.83;4.43;;;17.70;37.10;;;;;;20725;6827;119313;-75
2023/06/14 04:30:33;;;;;;;4.33;4.13;;;17.60;36.90;;;;;;20759;6827;117751;-77
2023/06/14 04:33:00;;;;;;;4.40;4.20;;;17.10;37.20;;;;;;20771;6827;117240;-76
2023/06/14 04:35:27;;;;;;;5.10;4.73;;;17.10;37.20;;;;;;20551;6827;305444;-78
2023/06/14 04:37:54;;;;;;;8.20;4.60;;;17.30;36.80;;;;;;20599;6827;117322;-77
2023/06/14 04:40:19;;;;;;;5.40;5.00;;;17.30;36.80;;;;;;20769;6827;117358;-78
2023/06/14 04:42:46;;;;;;;5.75;5.25;;;17.20;36.90;;;;;;20566;6825;284400;-78
2023/06/14 04:45:10;;;;;;;6.05;5.57;;;17.40;37.00;;;;;;20570;6827;336000;-79
2023/06/14 04:47:37;;;;;;;4.70;4.40;;;17.80;36.60;;;;;;20781;6827;123056;-79
2023/06/14 04:50:02;;;;;;;5.70;5.20;;;17.80;36.90;;;;;;20553;6827;277245;-79
2023/06/14 04:52:30;;;;;;;5.70;5.20;;;18.10;37.10;;;;;;20538;6827;279263;-79
2023/06/14 04:54:56;;;;;;;5.60;5.10;;;18.10;37.10;;;;;;20557;6827;282781;-78
2023/06/14 04:57:22;;;;;;;5.82;5.35;;;18.20;36.40;;;;;;20559;6827;306995;-81
2023/06/14 04:59:47;;;;;;;5.00;4.50;;;18.30;36.30;;;;;;20800;6827;74148;-80
2023/06/14 05:02:13;;;;;;;4.50;4.20;;;18.00;36.40;;;;;;20776;6827;117324;-77
2023/06/14 05:04:39;;;;;;;5.30;4.97;;;17.60;36.90;;;;;;20758;6827;123795;-77
2023/06/14 05:07:06;;;;;;;5.60;5.20;;;17.30;37.50;;;;;;20528;6827;307030;-80
2023/06/14 05:09:33;;;;;;;5.40;5.07;;;17.40;38.20;;;;;;20548;6827;307054;-80
2023/06/14 05:12:00;;;;;;;5.00;4.70;;;17.60;37.30;;;;;;20777;6827;117823;-78
2023/06/14 05:14:25;;;;;;;5.60;5.20;;;17.60;37.30;;;;;;20732;6827;117424;-78
2023/06/14 05:16:50;;;;;;;5.07;4.77;;;17.40;37.60;;;;;;20769;6827;117426;-80
2023/06/14 05:19:17;;;;;;;5.60;5.20;;;17.30;37.90;;;;;;20566;6827;281852;-81
2023/06/14 05:21:44;;;;;;;6.07;5.40;;;17.90;37.10;;;;;;20566;6827;327014;-83
2023/06/14 05:24:09;;;;;;;5.47;5.17;;;17.90;37.10;;;;;;20561;6827;289657;-79
2023/06/14 05:26:35;;;;;;;9.33;5.37;;;18.20;37.10;;;;;;20760;6827;122344;-77
2023/06/14 05:29:01;;;;;;;5.80;5.40;;;18.20;37.10;;;;;;20541;6827;306527;-83
2023/06/14 05:31:26;;;;;;;5.60;5.20;;;18.30;37.60;;;;;;20569;6827;314768;-77
2023/06/14 05:33:53;;;;;;;5.43;5.03;;;18.80;37.60;;;;;;20561;6827;277543;-83
2023/06/14 05:36:18;;;;;;;5.20;4.67;;;18.80;37.60;;;;;;20767;6827;117915;-79
2023/06/14 05:38:45;;;;;;;5.00;4.60;;;18.50;38.10;;;;;;20619;6827;117515;-80
2023/06/14 05:41:10;;;;;;;5.75;5.25;;;18.50;38.10;;;;;;20552;6827;307505;-79
2023/06/14 05:43:36;;;;;;;5.50;5.10;;;18.90;37.60;;;;;;20561;6827;277716;-78
2023/06/14 05:46:02;;;;;;;5.90;4.90;;;19.40;36.80;;;;;;20552;6827;307071;-78
2023/06/14 05:48:27;;;;;;;5.20;4.80;;;19.80;37.10;;;;;;20519;6827;305450;-76
2023/06/14 05:50:54;;;;;;;4.90;4.50;;;20.10;36.40;;;;;;20765;6827;117283;-77
2023/06/14 05:53:19;;;;;;;5.37;4.95;;;20.10;36.00;;;;;;20559;6825;299206;-78
2023/06/14 05:55:45;;;;;;;4.95;4.40;;;20.20;35.80;;;;;;20675;6826;121331;-77
2023/06/14 05:58:13;;;;;;;5.40;4.97;;;20.20;35.90;;;;;;20755;6827;117915;-79
2023/06/14 06:00:38;;;;;;;6.20;5.60;;;20.10;36.20;;;;;;20483;6827;285051;-77
2023/06/14 06:03:04;;;;;;;5.30;4.90;;;20.80;35.50;;;;;;20547;6827;311536;-77
2023/06/14 06:05:30;;;;;;;4.97;4.63;;;20.80;35.50;;;;;;20751;6827;117554;-78
2023/06/14 06:07:56;;;;;;;5.50;5.10;;;20.80;35.60;;;;;;20544;6827;340267;-77
2023/06/14 06:10:21;;;;;;;5.80;5.30;;;21.10;35.40;;;;;;20519;6827;277198;-77
2023/06/14 06:12:48;;;;;;;6.00;5.50;;;21.90;34.90;;;;;;20551;6827;278441;-80
2023/06/14 06:15:12;;;;;;;6.55;5.80;;;22.80;34.10;;;;;;20547;6827;297807;-77
2023/06/14 06:17:38;;;;;;;5.23;4.87;;;23.70;33.30;;;;;;20770;6827;120706;-78
2023/06/14 06:20:05;;;;;;;6.00;5.50;;;24.30;33.60;;;;;;20566;6827;278376;-78
2023/06/14 06:22:29;;;;;;;5.30;4.90;;;24.80;31.90;;;;;;20741;6827;117842;-80
2023/06/14 06:24:55;;;;;;;5.30;5.00;;;25.20;32.20;;;;;;20765;6827;117516;-77
2023/06/14 06:27:20;;;;;;;6.77;5.37;;;25.30;32.20;;;;;;20764;6827;117123;-77
2023/06/14 06:29:48;;;;;;;5.78;5.30;;;25.50;31.90;;;;;;20555;6827;307003;-81
2023/06/14 06:32:13;;;;;;;6.78;5.72;;;26.00;29.50;;;;;;20559;6827;306725;-77
2023/06/14 06:34:38;;;;;;;6.03;5.53;;;26.60;28.30;;;;;;20538;6827;308297;-78
2023/06/14 06:37:04;;;;;;;5.63;5.13;;;27.10;27.40;;;;;;20555;6827;337286;-77
2023/06/14 06:39:30;;;;;;;5.90;5.43;;;27.60;26.70;;;;;;20772;6827;118406;-76
2023/06/14 06:41:56;;;;;;;6.22;5.72;;;27.70;26.50;;;;;;20559;6827;307226;-80
2023/06/14 06:44:22;;;;;;;6.20;5.70;;;27.70;26.50;;;;;;20750;6827;117822;-76
2023/06/14 06:46:47;;;;;;;5.90;5.50;;;27.70;27.10;;;;;;20571;6827;277493;-77
2023/06/14 06:49:15;;;;;;;5.80;4.80;;;28.10;27.30;;;;;;20780;6827;117469;-77
2023/06/14 06:51:45;;;;;;;6.00;5.40;;;28.50;26.00;;;;;;20557;6827;336949;-82
2023/06/14 06:54:10;;;;;;;5.07;4.87;;;28.50;26.00;;;;;;20763;6827;117305;-79
2023/06/14 06:56:36;;;;;;;5.77;5.17;;;29.00;24.40;;;;;;20535;6827;277464;-77
2023/06/14 06:59:02;;;;;;;6.13;5.63;;;29.00;24.40;;;;;;20767;6827;117894;-76
2023/06/14 07:01:28;;;;;;;5.83;5.43;;;29.30;24.00;;;;;;20545;6827;311356;-81
2023/06/14 07:03:56;;;;;;;5.97;5.40;;;29.70;23.50;;;;;;20558;6825;278245;-78
2023/06/14 07:06:22;;;;;;;5.87;5.30;;;29.70;23.70;;;;;;20744;6826;120418;-77
2023/06/14 07:08:50;;;;;;;6.33;5.63;;;29.50;24.10;;;;;;20765;6827;117012;-78
2023/06/14 07:11:16;;;;;;;6.25;5.78;;;29.10;24.40;;;;;;20565;6827;306558;-77
2023/06/14 07:13:42;;;;;;;6.73;5.80;;;29.20;24.30;;;;;;20768;6827;117578;-80
2023/06/14 07:16:07;;;;;;;5.75;5.30;;;29.10;24.50;;;;;;20560;6827;307002;-77
2023/06/14 07:18:33;;;;;;;5.77;5.33;;;29.20;24.40;;;;;;20756;6827;118849;-76
2023/06/14 07:20:58;;;;;;;5.90;5.40;;;29.00;24.60;;;;;;20560;6827;304995;-77
2023/06/14 07:23:24;;;;;;;5.70;5.30;;;29.00;23.80;;;;;;20569;6827;280621;-77
2023/06/14 07:25:50;;;;;;;5.60;5.20;;;28.90;23.90;;;;;;20775;6827;117088;-80
2023/06/14 07:28:16;;;;;;;6.18;5.62;;;28.50;25.10;;;;;;20566;6827;277773;-78
2023/06/14 07:30:41;;;;;;;6.00;5.47;;;28.50;25.10;;;;;;20539;6827;330429;-77
2023/06/14 07:33:08;;;;;;;5.70;5.30;;;28.60;24.70;;;;;;20555;6827;308931;-79
2023/06/14 07:35:33;;;;;;;5.47;5.03;;;28.60;24.60;;;;;;20771;6827;116907;-77
2023/06/14 07:37:59;;;;;;;6.35;5.80;;;28.30;24.50;;;;;;20563;6827;278291;-78
2023/06/14 07:40:25;;;;;;;6.17;5.60;;;28.10;25.20;;;;;;20749;6827;130042;-81
2023/06/14 07:42:54;;;;;;;7.27;5.43;;;27.60;25.60;;;;;;20568;6827;278462;-80
2023/06/14 07:45:19;;;;;;;5.90;5.40;;;27.40;25.80;;;;;;20763;6827;120166;-80
2023/06/14 07:47:44;;;;;;;5.47;5.07;;;27.40;25.80;;;;;;20771;6827;117946;-82
2023/06/14 07:50:10;;;;;;;5.60;5.30;;;27.00;26.00;;;;;;20563;6827;311987;-80
2023/06/14 07:52:35;;;;;;;6.57;5.40;;;27.30;26.40;;;;;;20536;6827;328544;-79
2023/06/14 07:55:01;;;;;;;7.53;4.80;;;27.60;26.20;;;;;;20775;6827;117259;-80
2023/06/14 07:57:26;;;;;;;6.12;5.47;;;27.50;25.90;;;;;;20564;6827;307585;-78
2023/06/14 07:59:53;;;;;;;6.27;5.40;;;27.70;25.90;;;;;;20553;6827;307205;-76
2023/06/14 08:02:18;;;;;;;5.17;4.60;;;27.70;25.90;;;;;;20771;6827;117352;-77
2023/06/14 08:04:46;;;;;;;6.67;4.47;;;27.40;26.00;;;;;;20749;6827;122295;-77
2023/06/14 08:07:10;;;;;;;4.63;4.30;;;27.40;26.00;;;;;;20763;6827;117853;-80
2023/06/14 08:09:37;;;;;;;5.03;4.63;;;27.20;26.00;;;;;;20556;6827;311525;-77
2023/06/14 08:12:01;;;;;;;4.60;4.30;;;27.40;24.70;;;;;;20548;6827;307250;-77
2023/06/14 08:14:27;;;;;;;4.70;4.13;;;27.80;25.40;;;;;;20540;6827;303097;-77
2023/06/14 08:16:53;;;;;;;4.80;4.40;;;28.10;25.10;;;;;;20757;6825;118054;-77
2023/06/14 08:19:19;;;;;;;4.80;4.50;;;28.00;25.10;;;;;;20569;6826;307754;-78
2023/06/14 08:21:46;;;;;;;5.22;4.72;;;28.00;24.90;;;;;;20564;6827;307556;-78
2023/06/14 08:24:12;;;;;;;6.10;4.30;;;28.20;23.90;;;;;;20536;6827;306874;-78
2023/06/14 08:26:36;;;;;;;4.10;3.83;;;28.20;24.10;;;;;;20741;6827;120430;-76
2023/06/14 08:29:02;;;;;;;5.17;4.30;;;28.20;24.10;;;;;;20773;6827;117155;-76
2023/06/14 08:31:28;;;;;;;4.57;4.20;;;27.90;24.30;;;;;;20561;6827;306994;-76
2023/06/14 08:33:53;;;;;;;4.40;4.03;;;28.00;24.00;;;;;;20770;6827;117224;-75
2023/06/14 08:36:19;;;;;;;4.27;3.97;;;27.90;24.10;;;;;;20765;6827;117046;-75
2023/06/14 08:38:44;;;;;;;5.30;4.67;;;27.70;24.40;;;;;;20541;6827;307414;-76
2023/06/14 08:41:10;;;;;;;5.03;4.57;;;27.80;24.70;;;;;;20566;6827;277610;-77
2023/06/14 08:43:35;;;;;;;6.07;4.70;;;28.10;24.70;;;;;;20555;6827;307762;-78
2023/06/14 08:46:01;;;;;;;5.07;4.67;;;28.30;25.00;;;;;;20770;6827;117783;-76
2023/06/14 08:48:26;;;;;;;5.33;4.83;;;28.30;25.00;;;;;;20743;6827;119384;-76
2023/06/14 08:50:52;;;;;;;5.35;4.60;;;28.10;25.10;;;;;;20561;6827;306663;-77
2023/06/14 08:53:19;;;;;;;5.30;4.80;;;28.60;25.30;;;;;;20554;6827;311119;-77
2023/06/14 08:55:44;;;;;;;5.53;4.77;;;28.60;25.30;;;;;;20767;6827;121138;-77
2023/06/14 08:58:14;;;;;;;6.03;5.10;;;28.60;25.10;;;;;;20546;6827;306941;-77
2023/06/14 09:00:37;;;;;;;6.10;4.83;;;28.80;24.80;;;;;;20545;6827;306453;-79
2023/06/14 09:03:00;;;;;;;5.43;4.93;;;29.10;24.60;;;;;;20766;6827;117404;-76
2023/06/14 09:05:26;;;;;;;5.05;4.65;;;29.00;24.70;;;;;;20583;6827;306511;-80
2023/06/14 09:07:52;;;;;;;4.93;4.50;;;29.20;24.60;;;;;;20776;6827;117489;-79
2023/06/14 09:10:17;;;;;;;6.93;4.68;;;29.10;24.50;;;;;;20568;6827;311637;-79
2023/06/14 09:12:43;;;;;;;5.07;4.60;;;29.20;24.50;;;;;;20750;6827;119183;-79
2023/06/14 09:15:09;;;;;;;6.07;4.57;;;29.10;24.40;;;;;;20806;6827;116168;-79
2023/06/14 09:17:38;;;;;;;5.30;4.90;;;28.90;24.50;;;;;;20665;6827;277426;-79
2023/06/14 09:20:18;;;;;;;5.37;4.97;;;29.00;24.30;;;;;;20635;6827;306424;-77
2023/06/14 09:22:43;;;;;;;5.70;4.43;;;29.30;24.30;;;;;;20839;6827;116872;-77
2023/06/14 09:25:09;;;;;;;5.27;4.77;;;29.20;24.30;;;;;;20842;6827;113734;-77
2023/06/14 09:27:35;;;;;;;4.90;4.60;;;29.10;24.70;;;;;;20840;6825;116200;-77
2023/06/14 09:30:00;;;;;;;6.87;4.75;;;28.90;25.00;;;;;;20635;6826;307099;-77
2023/06/14 09:32:27;;;;;;;4.33;4.03;;;29.10;25.10;;;;;;20782;6827;118112;-78
2023/06/14 09:34:52;;;;;;;5.23;4.83;;;29.30;24.90;;;;;;20795;6827;116366;-78
2023/06/14 09:37:27;;;;;;;5.30;4.60;;;29.20;24.90;;;;;;20576;6827;277328;-78
2023/06/14 09:39:52;;;;;;;6.17;5.40;;;29.50;24.50;;;;;;20563;6827;297208;-78
2023/06/14 09:42:19;;;;;;;6.03;4.68;;;30.00;24.30;;;;;;20574;6827;310228;-77
2023/06/14 09:44:49;;;;;;;4.80;4.30;;;30.70;22.90;;;;;;20571;6827;305526;-78
2023/06/14 09:47:15;;;;;;;5.37;4.47;;;30.70;22.90;;;;;;20779;6827;119305;-77
2023/06/14 09:49:40;;;;;;;5.03;3.93;;;30.60;22.90;;;;;;20783;6827;117931;-79
2023/06/14 09:52:06;;;;;;;4.77;4.07;;;30.40;22.60;;;;;;20773;6827;120574;-77
2023/06/14 09:54:32;;;;;;;4.97;4.60;;;29.90;22.50;;;;;;20755;6827;117460;-77
2023/06/14 09:57:00;;;;;;;5.45;4.60;;;29.90;22.40;;;;;;20575;6827;306134;-78
2023/06/14 09:59:29;;;;;;;5.03;4.50;;;30.00;22.20;;;;;;20579;6827;277509;-76
2023/06/14 10:01:52;;;;;;;6.13;4.20;;;30.40;22.20;;;;;;20563;6827;316441;-77
2023/06/14 10:04:17;;;;;;;4.30;4.10;;;30.70;23.10;;;;;;20775;6827;120768;-77
2023/06/14 10:06:43;;;;;;;4.43;4.13;;;30.90;22.70;;;;;;20753;6827;122859;-77
2023/06/14 10:09:08;;;;;;;4.30;4.00;;;30.70;22.30;;;;;;20565;6827;311909;-78
2023/06/14 10:11:36;;;;;;;6.62;4.15;;;30.90;21.80;;;;;;20799;6827;117554;-79
2023/06/14 10:14:03;;;;;;;4.70;4.00;;;30.90;21.70;;;;;;20775;6827;117067;-77
2023/06/14 10:16:28;;;;;;;4.57;4.20;;;30.80;21.80;;;;;;20558;6827;298442;-79
2023/06/14 10:19:07;;;;;;;4.77;4.47;;;31.00;21.90;;;;;;20567;6827;278049;-80
2023/06/14 10:21:49;;;;;;;5.60;4.30;;;31.40;22.00;;;;;;20777;6827;116894;-78
2023/06/14 10:24:15;;;;;;;4.60;4.20;;;31.50;22.10;;;;;;20562;6827;278193;-77
2023/06/14 10:26:51;;;;;;;4.57;4.27;;;31.70;20.90;;;;;;20549;6827;282619;-77
2023/06/14 10:29:16;;;;;;;6.80;4.20;;;31.60;20.80;;;;;;20564;6827;277031;-77
2023/06/14 10:31:45;;;;;;;4.53;4.13;;;31.70;21.10;;;;;;20780;6827;117008;-79
2023/06/14 10:34:10;;;;;;;4.07;3.87;;;31.60;21.10;;;;;;20763;6827;119610;-77
2023/06/14 10:36:36;;;;;;;4.53;4.25;;;31.30;21.10;;;;;;20547;6827;277972;-77
2023/06/14 10:39:05;;;;;;;4.73;4.33;;;31.30;21.20;;;;;;20562;6825;307220;-78
2023/06/14 10:41:31;;;;;;;4.50;4.10;;;31.40;21.10;;;;;;20783;6826;116969;-77
2023/06/14 10:44:13;;;;;;;4.30;4.10;;;31.40;21.10;;;;;;20771;6827;119236;-77
2023/06/14 10:46:45;;;;;;;3.97;3.77;;;31.40;21.20;;;;;;20777;6827;119307;-76
2023/06/14 10:49:11;;;;;;;4.32;3.95;;;31.40;21.50;;;;;;20546;6827;335428;-77
2023/06/14 10:51:46;;;;;;;4.47;4.07;;;31.60;20.80;;;;;;20791;6827;116996;-76
2023/06/14 10:54:15;;;;;;;4.93;4.53;;;31.40;21.20;;;;;;20797;6827;119559;-76
2023/06/14 10:56:38;;;;;;;4.50;4.30;;;31.40;21.30;;;;;;20742;6827;119717;-75
2023/06/14 10:59:04;;;;;;;4.23;3.90;;;31.30;21.10;;;;;;20747;6827;120348;-76
2023/06/14 11:01:36;;;;;;;4.00;3.80;;;31.20;21.00;;;;;;20768;6827;117061;-76
2023/06/14 11:04:09;;;;;;;4.60;4.20;;;31.10;21.20;;;;;;20782;6827;117415;-76
2023/06/14 11:06:34;;;;;;;6.67;3.90;;;31.20;21.50;;;;;;20766;6827;147466;-77
2023/06/14 11:09:30;;;;;;;5.27;4.40;;;31.10;21.40;;;;;;20730;6827;123819;-76
2023/06/14 11:11:54;;;;;;;4.80;4.30;;;30.80;21.30;;;;;;20586;6827;306903;-76
2023/06/14 11:14:20;;;;;;;6.87;4.30;;;30.70;21.00;;;;;;20810;6827;117031;-78
2023/06/14 11:16:49;;;;;;;5.40;4.90;;;30.50;21.10;;;;;;20459;6827;319867;-76
2023/06/14 11:19:14;;;;;;;4.80;4.40;;;30.20;21.10;;;;;;20591;6827;311450;-74
2023/06/14 11:21:41;;;;;;;4.80;4.40;;;30.30;21.40;;;;;;20582;6827;278418;-76
2023/06/14 11:24:08;;;;;;;4.47;4.17;;;30.50;21.10;;;;;;20793;6827;117125;-75
2023/06/14 11:26:56;;;;;;;4.63;4.33;;;30.50;21.40;;;;;;20748;6827;124012;-77
2023/06/14 11:29:35;;;;;;;5.15;4.62;;;30.40;21.50;;;;;;20752;6721;316270;-77
2023/06/14 11:32:05;;;;;;;5.67;4.77;;;30.50;21.90;;;;;;20694;6736;308169;-77
2023/06/14 11:34:40;;;;;;;5.10;4.27;;;30.70;21.40;;;;;;20683;6724;305502;-75
2023/06/14 11:37:16;;;;;;;5.07;4.37;;;30.90;21.30;;;;;;20844;6714;116418;-75
2023/06/14 11:39:52;;;;;;;4.97;4.60;;;30.90;21.40;;;;;;20971;6709;119462;-74
2023/06/14 11:42:30;;;;;;;3.97;3.63;;;30.70;21.60;;;;;;20872;6726;117009;-76
2023/06/14 11:45:05;;;;;;;4.50;4.30;;;30.60;21.50;;;;;;20911;6726;117078;-75
2023/06/14 11:47:39;;;;;;;4.73;4.50;;;30.40;21.50;;;;;;20590;6715;308346;-77
2023/06/14 11:50:15;;;;;;;5.30;4.90;;;30.50;21.50;;;;;;20786;6714;275223;-77
2023/06/14 11:52:55;;;;;;;5.10;4.68;;;30.60;21.50;;;;;;20728;6712;334253;-77
2023/06/14 11:55:31;;;;;;;5.27;4.73;;;30.60;21.10;;;;;;20734;6709;310367;-77
2023/06/14 11:58:07;;;;;;;5.30;4.70;;;30.70;21.50;;;;;;20583;6739;276908;-78
2023/06/14 12:00:43;;;;;;;5.97;4.37;;;30.80;21.50;;;;;;20961;6709;120066;-82
2023/06/14 12:03:18;;;;;;;5.93;4.70;;;30.70;21.20;;;;;;20679;6739;306181;-79
2023/06/14 12:06:16;;;;;;;5.87;4.60;;;30.80;21.10;;;;;;20725;6709;305576;-77
2023/06/14 12:08:45;;;;;;;5.15;4.70;;;31.40;21.70;;;;;;20731;6713;334920;-82
2023/06/14 12:11:19;;;;;;;4.97;4.50;;;31.40;21.70;;;;;;20712;6713;304350;-80
2023/06/14 12:13:57;;;;;;;5.10;4.70;;;31.70;20.40;;;;;;20927;6716;117383;-78
2023/06/14 12:16:33;;;;;;;4.80;4.33;;;31.70;20.80;;;;;;20855;6698;119750;-78
2023/06/14 12:19:16;;;;;;;6.57;4.87;;;31.30;21.00;;;;;;20922;6714;120042;-78
2023/06/14 12:21:53;;;;;;;5.10;4.60;;;31.00;21.10;;;;;;20713;6713;304822;-80
2023/06/14 12:24:30;;;;;;;6.47;4.80;;;31.00;21.10;;;;;;20885;6714;118428;-81
2023/06/14 12:27:13;;;;;;;6.00;4.40;;;30.50;21.60;;;;;;20769;6698;118681;-80
2023/06/14 12:29:48;;;;;;;6.23;4.47;;;30.50;21.60;;;;;;20777;6744;116872;-79
2023/06/14 12:32:24;;;;;;;4.93;4.47;;;30.30;22.00;;;;;;20611;6785;305620;-78
2023/06/14 12:35:01;;;;;;;5.30;4.80;;;30.70;21.30;;;;;;20633;6746;277422;-75